sensor_id;sensor_type;location;lat;lon;timestamp;P1;durP1;ratioP1;P2;durP2;ratioP2
18726;SDS011;9492;51.888;5.186;2023-12-07T00:01:43;8.60;;;7.57;;
18726;SDS011;9492;51.888;5.186;2023-12-07T00:04:09;7.37;;;6.47;;
18726;SDS011;9492;51.888;5.186;2023-12-07T00:06:35;7.43;;;6.63;;
18726;SDS011;9492;51.888;5.186;2023-12-07T00:09:00;9.70;;;6.97;;
18726;SDS011;9492;51.888;5.186;2023-12-07T00:11:27;8.67;;;6.90;;
18726;SDS011;9492;51.888;5.186;2023-12-07T00:13:53;8.17;;;6.80;;
18726;SDS011;9492;51.888;5.186;2023-12-07T00:16:19;9.57;;;7.40;;
18726;SDS011;9492;51.888;5.186;2023-12-07T00:18:45;8.27;;;6.87;;
18726;SDS011;9492;51.888;5.186;2023-12-07T00:21:11;7.27;;;6.43;;
18726;SDS011;9492;51.888;5.186;2023-12-07T00:23:37;9.60;;;6.80;;
18726;SDS011;9492;51.888;5.186;2023-12-07T00:26:03;11.53;;;7.47;;
18726;SDS011;9492;51.888;5.186;2023-12-07T00:28:29;7.73;;;6.47;;
18726;SDS011;9492;51.888;5.186;2023-12-07T00:30:56;9.10;;;7.57;;
18726;SDS011;9492;51.888;5.186;2023-12-07T00:33:22;8.57;;;6.50;;
18726;SDS011;9492;51.888;5.186;2023-12-07T00:35:48;8.10;;;6.97;;
18726;SDS011;9492;51.888;5.186;2023-12-07T00:38:14;7.63;;;6.37;;
18726;SDS011;9492;51.888;5.186;2023-12-07T00:40:40;8.63;;;6.60;;
18726;SDS011;9492;51.888;5.186;2023-12-07T00:43:06;7.03;;;6.23;;
18726;SDS011;9492;51.888;5.186;2023-12-07T00:45:32;8.00;;;7.13;;
18726;SDS011;9492;51.888;5.186;2023-12-07T00:47:59;11.77;;;8.43;;
18726;SDS011;9492;51.888;5.186;2023-12-07T00:50:25;13.27;;;9.27;;
18726;SDS011;9492;51.888;5.186;2023-12-07T00:52:51;13.43;;;9.23;;
18726;SDS011;9492;51.888;5.186;2023-12-07T00:55:17;16.43;;;11.60;;
18726;SDS011;9492;51.888;5.186;2023-12-07T00:57:43;13.83;;;11.13;;
18726;SDS011;9492;51.888;5.186;2023-12-07T01:00:09;12.40;;;10.23;;
18726;SDS011;9492;51.888;5.186;2023-12-07T01:02:35;9.43;;;8.17;;
18726;SDS011;9492;51.888;5.186;2023-12-07T01:05:01;9.10;;;8.00;;
18726;SDS011;9492;51.888;5.186;2023-12-07T01:07:27;8.87;;;7.80;;
18726;SDS011;9492;51.888;5.186;2023-12-07T01:09:53;9.97;;;7.87;;
18726;SDS011;9492;51.888;5.186;2023-12-07T01:12:19;12.00;;;7.70;;
18726;SDS011;9492;51.888;5.186;2023-12-07T01:14:45;9.70;;;7.60;;
18726;SDS011;9492;51.888;5.186;2023-12-07T01:17:12;8.73;;;7.27;;
18726;SDS011;9492;51.888;5.186;2023-12-07T01:19:38;8.43;;;7.10;;
18726;SDS011;9492;51.888;5.186;2023-12-07T01:22:04;7.50;;;6.73;;
18726;SDS011;9492;51.888;5.186;2023-12-07T01:24:30;10.53;;;8.30;;
18726;SDS011;9492;51.888;5.186;2023-12-07T01:26:56;9.30;;;7.57;;
18726;SDS011;9492;51.888;5.186;2023-12-07T01:29:22;9.53;;;7.83;;
18726;SDS011;9492;51.888;5.186;2023-12-07T01:31:48;10.33;;;6.83;;
18726;SDS011;9492;51.888;5.186;2023-12-07T01:34:14;9.57;;;6.73;;
18726;SDS011;9492;51.888;5.186;2023-12-07T01:36:40;10.93;;;7.50;;
18726;SDS011;9492;51.888;5.186;2023-12-07T01:39:06;9.87;;;7.63;;
18726;SDS011;9492;51.888;5.186;2023-12-07T01:41:36;9.43;;;7.63;;
18726;SDS011;9492;51.888;5.186;2023-12-07T01:44:02;10.53;;;7.17;;
18726;SDS011;9492;51.888;5.186;2023-12-07T01:46:28;9.50;;;7.73;;
18726;SDS011;9492;51.888;5.186;2023-12-07T01:48:55;9.83;;;7.67;;
18726;SDS011;9492;51.888;5.186;2023-12-07T01:51:21;8.97;;;7.30;;
18726;SDS011;9492;51.888;5.186;2023-12-07T01:53:47;8.83;;;6.70;;
18726;SDS011;9492;51.888;5.186;2023-12-07T01:56:13;9.63;;;7.47;;
18726;SDS011;9492;51.888;5.186;2023-12-07T01:58:41;11.43;;;7.10;;
18726;SDS011;9492;51.888;5.186;2023-12-07T02:01:07;8.77;;;7.37;;
18726;SDS011;9492;51.888;5.186;2023-12-07T02:03:34;9.80;;;8.43;;
18726;SDS011;9492;51.888;5.186;2023-12-07T02:06:00;8.73;;;7.30;;
18726;SDS011;9492;51.888;5.186;2023-12-07T02:08:27;8.13;;;7.13;;
18726;SDS011;9492;51.888;5.186;2023-12-07T02:10:53;11.13;;;7.83;;
18726;SDS011;9492;51.888;5.186;2023-12-07T02:13:22;9.37;;;7.83;;
18726;SDS011;9492;51.888;5.186;2023-12-07T02:15:48;7.43;;;6.70;;
18726;SDS011;9492;51.888;5.186;2023-12-07T02:18:25;9.53;;;7.30;;
18726;SDS011;9492;51.888;5.186;2023-12-07T02:21:04;10.27;;;7.83;;
18726;SDS011;9492;51.888;5.186;2023-12-07T02:23:32;8.77;;;7.80;;
18726;SDS011;9492;51.888;5.186;2023-12-07T02:26:01;7.67;;;6.93;;
18726;SDS011;9492;51.888;5.186;2023-12-07T02:28:28;9.60;;;7.43;;
18726;SDS011;9492;51.888;5.186;2023-12-07T02:30:54;8.37;;;7.30;;
18726;SDS011;9492;51.888;5.186;2023-12-07T02:33:20;10.40;;;7.80;;
18726;SDS011;9492;51.888;5.186;2023-12-07T02:35:46;9.80;;;7.80;;
18726;SDS011;9492;51.888;5.186;2023-12-07T02:38:12;9.20;;;6.97;;
18726;SDS011;9492;51.888;5.186;2023-12-07T02:40:38;10.07;;;7.43;;
18726;SDS011;9492;51.888;5.186;2023-12-07T02:43:05;10.83;;;8.03;;
18726;SDS011;9492;51.888;5.186;2023-12-07T02:45:32;9.53;;;8.20;;
18726;SDS011;9492;51.888;5.186;2023-12-07T02:47:59;10.07;;;7.10;;
18726;SDS011;9492;51.888;5.186;2023-12-07T02:50:25;9.57;;;7.87;;
18726;SDS011;9492;51.888;5.186;2023-12-07T02:52:51;8.73;;;7.77;;
18726;SDS011;9492;51.888;5.186;2023-12-07T02:55:17;11.17;;;7.60;;
18726;SDS011;9492;51.888;5.186;2023-12-07T02:57:43;9.77;;;7.37;;
18726;SDS011;9492;51.888;5.186;2023-12-07T03:00:09;10.03;;;7.43;;
18726;SDS011;9492;51.888;5.186;2023-12-07T03:02:38;8.97;;;7.27;;
18726;SDS011;9492;51.888;5.186;2023-12-07T03:05:04;10.40;;;8.00;;
18726;SDS011;9492;51.888;5.186;2023-12-07T03:07:31;8.83;;;7.50;;
18726;SDS011;9492;51.888;5.186;2023-12-07T03:09:57;10.03;;;7.70;;
18726;SDS011;9492;51.888;5.186;2023-12-07T03:12:23;8.27;;;7.17;;
18726;SDS011;9492;51.888;5.186;2023-12-07T03:14:49;10.30;;;7.70;;
18726;SDS011;9492;51.888;5.186;2023-12-07T03:17:15;8.97;;;7.27;;
18726;SDS011;9492;51.888;5.186;2023-12-07T03:19:41;10.67;;;7.73;;
18726;SDS011;9492;51.888;5.186;2023-12-07T03:22:07;14.33;;;8.20;;
18726;SDS011;9492;51.888;5.186;2023-12-07T03:24:37;9.77;;;7.60;;
18726;SDS011;9492;51.888;5.186;2023-12-07T03:27:03;9.23;;;7.87;;
18726;SDS011;9492;51.888;5.186;2023-12-07T03:29:30;11.77;;;7.80;;
18726;SDS011;9492;51.888;5.186;2023-12-07T03:31:56;11.43;;;7.57;;
18726;SDS011;9492;51.888;5.186;2023-12-07T03:34:22;9.13;;;8.07;;
18726;SDS011;9492;51.888;5.186;2023-12-07T03:36:48;9.37;;;8.47;;
18726;SDS011;9492;51.888;5.186;2023-12-07T03:39:15;10.03;;;8.97;;
18726;SDS011;9492;51.888;5.186;2023-12-07T03:41:43;11.40;;;8.43;;
18726;SDS011;9492;51.888;5.186;2023-12-07T03:44:09;10.63;;;8.40;;
18726;SDS011;9492;51.888;5.186;2023-12-07T03:46:35;11.57;;;8.47;;
18726;SDS011;9492;51.888;5.186;2023-12-07T03:49:01;11.77;;;9.23;;
18726;SDS011;9492;51.888;5.186;2023-12-07T03:51:27;10.60;;;8.97;;
18726;SDS011;9492;51.888;5.186;2023-12-07T03:53:54;11.50;;;9.07;;
18726;SDS011;9492;51.888;5.186;2023-12-07T03:56:27;11.60;;;8.33;;
18726;SDS011;9492;51.888;5.186;2023-12-07T03:58:53;10.83;;;7.73;;
18726;SDS011;9492;51.888;5.186;2023-12-07T04:01:22;13.37;;;8.10;;
18726;SDS011;9492;51.888;5.186;2023-12-07T04:03:49;11.13;;;8.33;;
18726;SDS011;9492;51.888;5.186;2023-12-07T04:06:15;9.17;;;7.73;;
18726;SDS011;9492;51.888;5.186;2023-12-07T04:08:41;12.93;;;9.57;;
18726;SDS011;9492;51.888;5.186;2023-12-07T04:11:07;14.07;;;9.80;;
18726;SDS011;9492;51.888;5.186;2023-12-07T04:13:33;21.67;;;11.40;;
18726;SDS011;9492;51.888;5.186;2023-12-07T04:15:59;23.57;;;12.37;;
18726;SDS011;9492;51.888;5.186;2023-12-07T04:18:26;22.17;;;12.30;;
18726;SDS011;9492;51.888;5.186;2023-12-07T04:20:52;33.10;;;11.97;;
18726;SDS011;9492;51.888;5.186;2023-12-07T04:23:18;33.77;;;13.33;;
18726;SDS011;9492;51.888;5.186;2023-12-07T04:25:44;27.83;;;12.10;;
18726;SDS011;9492;51.888;5.186;2023-12-07T04:28:10;19.50;;;11.97;;
18726;SDS011;9492;51.888;5.186;2023-12-07T04:30:36;16.77;;;11.57;;
18726;SDS011;9492;51.888;5.186;2023-12-07T04:33:02;23.60;;;12.63;;
18726;SDS011;9492;51.888;5.186;2023-12-07T04:35:29;18.03;;;12.47;;
18726;SDS011;9492;51.888;5.186;2023-12-07T04:37:55;18.80;;;12.37;;
18726;SDS011;9492;51.888;5.186;2023-12-07T04:40:21;17.87;;;12.23;;
18726;SDS011;9492;51.888;5.186;2023-12-07T04:42:49;19.40;;;11.83;;
18726;SDS011;9492;51.888;5.186;2023-12-07T04:45:15;22.17;;;12.47;;
18726;SDS011;9492;51.888;5.186;2023-12-07T04:47:41;17.47;;;11.73;;
18726;SDS011;9492;51.888;5.186;2023-12-07T04:50:07;16.77;;;11.70;;
18726;SDS011;9492;51.888;5.186;2023-12-07T04:52:34;17.97;;;11.07;;
18726;SDS011;9492;51.888;5.186;2023-12-07T04:55:00;21.50;;;12.50;;
18726;SDS011;9492;51.888;5.186;2023-12-07T04:57:26;18.13;;;12.63;;
18726;SDS011;9492;51.888;5.186;2023-12-07T04:59:52;21.57;;;11.50;;
18726;SDS011;9492;51.888;5.186;2023-12-07T05:02:18;20.77;;;12.17;;
18726;SDS011;9492;51.888;5.186;2023-12-07T05:04:44;23.30;;;12.03;;
18726;SDS011;9492;51.888;5.186;2023-12-07T05:07:11;37.27;;;12.30;;
18726;SDS011;9492;51.888;5.186;2023-12-07T05:09:38;25.07;;;12.67;;
18726;SDS011;9492;51.888;5.186;2023-12-07T05:12:04;25.23;;;14.37;;
18726;SDS011;9492;51.888;5.186;2023-12-07T05:14:30;28.83;;;15.27;;
18726;SDS011;9492;51.888;5.186;2023-12-07T05:16:56;21.83;;;13.70;;
18726;SDS011;9492;51.888;5.186;2023-12-07T05:19:23;40.57;;;15.50;;
18726;SDS011;9492;51.888;5.186;2023-12-07T05:21:49;46.87;;;14.33;;
18726;SDS011;9492;51.888;5.186;2023-12-07T05:24:15;26.77;;;15.97;;
18726;SDS011;9492;51.888;5.186;2023-12-07T05:26:42;23.80;;;16.00;;
18726;SDS011;9492;51.888;5.186;2023-12-07T05:29:08;31.60;;;15.90;;
18726;SDS011;9492;51.888;5.186;2023-12-07T05:31:35;35.87;;;14.97;;
18726;SDS011;9492;51.888;5.186;2023-12-07T05:34:01;22.27;;;14.20;;
18726;SDS011;9492;51.888;5.186;2023-12-07T05:36:27;24.20;;;14.90;;
18726;SDS011;9492;51.888;5.186;2023-12-07T05:38:53;29.50;;;14.27;;
18726;SDS011;9492;51.888;5.186;2023-12-07T05:41:19;29.27;;;14.33;;
18726;SDS011;9492;51.888;5.186;2023-12-07T05:43:45;23.60;;;14.30;;
18726;SDS011;9492;51.888;5.186;2023-12-07T05:46:11;31.20;;;13.90;;
18726;SDS011;9492;51.888;5.186;2023-12-07T05:48:37;26.27;;;15.43;;
18726;SDS011;9492;51.888;5.186;2023-12-07T05:51:03;28.83;;;15.23;;
18726;SDS011;9492;51.888;5.186;2023-12-07T05:53:29;41.43;;;14.50;;
18726;SDS011;9492;51.888;5.186;2023-12-07T05:55:57;47.17;;;15.17;;
18726;SDS011;9492;51.888;5.186;2023-12-07T05:58:23;28.20;;;15.13;;
18726;SDS011;9492;51.888;5.186;2023-12-07T06:00:49;38.50;;;14.80;;
18726;SDS011;9492;51.888;5.186;2023-12-07T06:03:15;30.10;;;15.87;;
18726;SDS011;9492;51.888;5.186;2023-12-07T06:05:41;30.43;;;14.83;;
18726;SDS011;9492;51.888;5.186;2023-12-07T06:08:10;30.70;;;16.43;;
18726;SDS011;9492;51.888;5.186;2023-12-07T06:10:36;36.77;;;16.47;;
18726;SDS011;9492;51.888;5.186;2023-12-07T06:13:02;35.73;;;15.87;;
18726;SDS011;9492;51.888;5.186;2023-12-07T06:15:28;50.23;;;17.17;;
18726;SDS011;9492;51.888;5.186;2023-12-07T06:17:54;29.47;;;16.63;;
18726;SDS011;9492;51.888;5.186;2023-12-07T06:20:22;25.93;;;16.40;;
18726;SDS011;9492;51.888;5.186;2023-12-07T06:22:48;39.53;;;16.27;;
18726;SDS011;9492;51.888;5.186;2023-12-07T06:25:14;46.37;;;15.33;;
18726;SDS011;9492;51.888;5.186;2023-12-07T06:27:41;36.80;;;17.77;;
18726;SDS011;9492;51.888;5.186;2023-12-07T06:30:07;42.87;;;17.17;;
18726;SDS011;9492;51.888;5.186;2023-12-07T06:32:33;39.50;;;17.33;;
18726;SDS011;9492;51.888;5.186;2023-12-07T06:35:00;58.20;;;17.37;;
18726;SDS011;9492;51.888;5.186;2023-12-07T06:37:26;37.13;;;17.20;;
18726;SDS011;9492;51.888;5.186;2023-12-07T06:39:52;28.13;;;17.20;;
18726;SDS011;9492;51.888;5.186;2023-12-07T06:42:18;46.47;;;15.60;;
18726;SDS011;9492;51.888;5.186;2023-12-07T06:44:47;36.90;;;14.97;;
18726;SDS011;9492;51.888;5.186;2023-12-07T06:47:14;27.17;;;14.37;;
18726;SDS011;9492;51.888;5.186;2023-12-07T06:49:40;28.17;;;14.43;;
18726;SDS011;9492;51.888;5.186;2023-12-07T06:52:06;44.97;;;14.40;;
18726;SDS011;9492;51.888;5.186;2023-12-07T06:54:33;31.00;;;12.27;;
18726;SDS011;9492;51.888;5.186;2023-12-07T06:56:59;51.47;;;13.27;;
18726;SDS011;9492;51.888;5.186;2023-12-07T06:59:25;28.47;;;12.90;;
18726;SDS011;9492;51.888;5.186;2023-12-07T07:01:51;29.20;;;10.60;;
18726;SDS011;9492;51.888;5.186;2023-12-07T07:04:17;24.17;;;10.87;;
18726;SDS011;9492;51.888;5.186;2023-12-07T07:06:43;23.03;;;11.03;;
18726;SDS011;9492;51.888;5.186;2023-12-07T07:09:09;27.17;;;9.93;;
18726;SDS011;9492;51.888;5.186;2023-12-07T07:11:37;19.10;;;9.97;;
18726;SDS011;9492;51.888;5.186;2023-12-07T07:14:03;42.77;;;10.27;;
18726;SDS011;9492;51.888;5.186;2023-12-07T07:16:29;40.37;;;9.80;;
18726;SDS011;9492;51.888;5.186;2023-12-07T07:18:55;18.43;;;9.03;;
18726;SDS011;9492;51.888;5.186;2023-12-07T07:21:22;28.77;;;10.07;;
18726;SDS011;9492;51.888;5.186;2023-12-07T07:23:48;30.57;;;9.83;;
18726;SDS011;9492;51.888;5.186;2023-12-07T07:26:14;18.00;;;9.53;;
18726;SDS011;9492;51.888;5.186;2023-12-07T07:28:42;15.27;;;9.00;;
18726;SDS011;9492;51.888;5.186;2023-12-07T07:31:08;24.33;;;9.47;;
18726;SDS011;9492;51.888;5.186;2023-12-07T07:33:34;28.40;;;9.67;;
18726;SDS011;9492;51.888;5.186;2023-12-07T07:36:00;31.20;;;8.60;;
18726;SDS011;9492;51.888;5.186;2023-12-07T07:38:26;38.10;;;11.63;;
18726;SDS011;9492;51.888;5.186;2023-12-07T07:40:52;83.23;;;34.33;;
18726;SDS011;9492;51.888;5.186;2023-12-07T07:43:18;19.30;;;10.60;;
18726;SDS011;9492;51.888;5.186;2023-12-07T07:45:44;26.10;;;11.20;;
18726;SDS011;9492;51.888;5.186;2023-12-07T07:48:11;19.17;;;12.20;;
18726;SDS011;9492;51.888;5.186;2023-12-07T07:50:37;34.47;;;9.87;;
18726;SDS011;9492;51.888;5.186;2023-12-07T07:53:03;21.47;;;9.60;;
18726;SDS011;9492;51.888;5.186;2023-12-07T07:55:29;25.60;;;14.33;;
18726;SDS011;9492;51.888;5.186;2023-12-07T07:57:56;51.73;;;14.40;;
18726;SDS011;9492;51.888;5.186;2023-12-07T08:00:22;51.17;;;15.80;;
18726;SDS011;9492;51.888;5.186;2023-12-07T08:02:51;34.20;;;14.47;;
18726;SDS011;9492;51.888;5.186;2023-12-07T08:05:17;36.40;;;14.47;;
18726;SDS011;9492;51.888;5.186;2023-12-07T08:07:43;29.90;;;10.33;;
18726;SDS011;9492;51.888;5.186;2023-12-07T08:10:09;23.87;;;9.23;;
18726;SDS011;9492;51.888;5.186;2023-12-07T08:12:36;43.37;;;17.13;;
18726;SDS011;9492;51.888;5.186;2023-12-07T08:15:02;31.63;;;18.00;;
18726;SDS011;9492;51.888;5.186;2023-12-07T08:17:28;46.60;;;26.10;;
18726;SDS011;9492;51.888;5.186;2023-12-07T08:19:54;25.33;;;13.37;;
18726;SDS011;9492;51.888;5.186;2023-12-07T08:22:22;36.23;;;14.10;;
18726;SDS011;9492;51.888;5.186;2023-12-07T08:24:48;39.40;;;11.90;;
18726;SDS011;9492;51.888;5.186;2023-12-07T08:27:14;35.20;;;9.90;;
18726;SDS011;9492;51.888;5.186;2023-12-07T08:29:40;24.37;;;14.20;;
18726;SDS011;9492;51.888;5.186;2023-12-07T08:32:06;24.33;;;11.97;;
18726;SDS011;9492;51.888;5.186;2023-12-07T08:34:32;29.03;;;12.23;;
18726;SDS011;9492;51.888;5.186;2023-12-07T08:36:58;24.40;;;10.03;;
18726;SDS011;9492;51.888;5.186;2023-12-07T08:39:24;21.57;;;9.87;;
18726;SDS011;9492;51.888;5.186;2023-12-07T08:41:51;22.60;;;11.03;;
18726;SDS011;9492;51.888;5.186;2023-12-07T08:44:17;20.57;;;11.87;;
18726;SDS011;9492;51.888;5.186;2023-12-07T08:46:43;42.43;;;10.90;;
18726;SDS011;9492;51.888;5.186;2023-12-07T08:49:10;17.73;;;10.83;;
18726;SDS011;9492;51.888;5.186;2023-12-07T08:51:36;27.87;;;11.40;;
18726;SDS011;9492;51.888;5.186;2023-12-07T08:54:02;22.70;;;12.20;;
18726;SDS011;9492;51.888;5.186;2023-12-07T08:56:28;18.57;;;12.33;;
18726;SDS011;9492;51.888;5.186;2023-12-07T08:58:54;21.47;;;12.43;;
18726;SDS011;9492;51.888;5.186;2023-12-07T09:01:20;21.10;;;11.93;;
18726;SDS011;9492;51.888;5.186;2023-12-07T09:03:46;16.97;;;9.43;;
18726;SDS011;9492;51.888;5.186;2023-12-07T09:06:12;21.27;;;9.77;;
18726;SDS011;9492;51.888;5.186;2023-12-07T09:08:38;23.40;;;8.87;;
18726;SDS011;9492;51.888;5.186;2023-12-07T09:11:04;15.40;;;8.77;;
18726;SDS011;9492;51.888;5.186;2023-12-07T09:13:30;14.90;;;9.30;;
18726;SDS011;9492;51.888;5.186;2023-12-07T09:15:56;29.63;;;11.03;;
18726;SDS011;9492;51.888;5.186;2023-12-07T09:18:22;19.63;;;11.90;;
18726;SDS011;9492;51.888;5.186;2023-12-07T09:20:48;15.20;;;10.20;;
18726;SDS011;9492;51.888;5.186;2023-12-07T09:23:14;18.17;;;10.50;;
18726;SDS011;9492;51.888;5.186;2023-12-07T09:25:40;21.33;;;10.20;;
18726;SDS011;9492;51.888;5.186;2023-12-07T09:28:07;15.40;;;9.07;;
18726;SDS011;9492;51.888;5.186;2023-12-07T09:30:33;20.30;;;9.10;;
18726;SDS011;9492;51.888;5.186;2023-12-07T09:32:59;17.33;;;9.63;;
18726;SDS011;9492;51.888;5.186;2023-12-07T09:35:29;20.17;;;10.10;;
18726;SDS011;9492;51.888;5.186;2023-12-07T09:37:55;20.97;;;9.67;;
18726;SDS011;9492;51.888;5.186;2023-12-07T09:40:21;18.43;;;9.70;;
18726;SDS011;9492;51.888;5.186;2023-12-07T09:42:47;24.10;;;11.00;;
18726;SDS011;9492;51.888;5.186;2023-12-07T09:45:16;21.00;;;10.10;;
18726;SDS011;9492;51.888;5.186;2023-12-07T09:47:43;19.47;;;11.57;;
18726;SDS011;9492;51.888;5.186;2023-12-07T09:50:12;21.40;;;11.83;;
18726;SDS011;9492;51.888;5.186;2023-12-07T09:52:40;21.87;;;11.00;;
18726;SDS011;9492;51.888;5.186;2023-12-07T09:55:08;18.63;;;10.60;;
18726;SDS011;9492;51.888;5.186;2023-12-07T09:57:35;22.10;;;11.13;;
18726;SDS011;9492;51.888;5.186;2023-12-07T10:00:03;19.80;;;11.17;;
18726;SDS011;9492;51.888;5.186;2023-12-07T10:02:29;26.23;;;11.93;;
18726;SDS011;9492;51.888;5.186;2023-12-07T10:05:05;18.33;;;11.07;;
18726;SDS011;9492;51.888;5.186;2023-12-07T10:07:32;19.67;;;11.90;;
18726;SDS011;9492;51.888;5.186;2023-12-07T10:09:59;20.20;;;11.60;;
18726;SDS011;9492;51.888;5.186;2023-12-07T10:12:25;24.20;;;11.73;;
18726;SDS011;9492;51.888;5.186;2023-12-07T10:14:51;18.53;;;11.23;;
18726;SDS011;9492;51.888;5.186;2023-12-07T10:17:17;19.90;;;11.80;;
18726;SDS011;9492;51.888;5.186;2023-12-07T10:19:43;23.20;;;11.20;;
18726;SDS011;9492;51.888;5.186;2023-12-07T10:22:15;18.90;;;11.87;;
18726;SDS011;9492;51.888;5.186;2023-12-07T10:24:41;18.63;;;11.87;;
18726;SDS011;9492;51.888;5.186;2023-12-07T10:27:08;19.13;;;11.23;;
18726;SDS011;9492;51.888;5.186;2023-12-07T10:29:37;19.37;;;11.87;;
18726;SDS011;9492;51.888;5.186;2023-12-07T10:32:03;24.33;;;13.70;;
18726;SDS011;9492;51.888;5.186;2023-12-07T10:34:30;26.03;;;13.40;;
18726;SDS011;9492;51.888;5.186;2023-12-07T10:36:58;23.57;;;12.60;;
18726;SDS011;9492;51.888;5.186;2023-12-07T10:39:24;21.70;;;13.43;;
18726;SDS011;9492;51.888;5.186;2023-12-07T10:41:52;23.33;;;14.67;;
18726;SDS011;9492;51.888;5.186;2023-12-07T10:44:22;25.80;;;14.17;;
18726;SDS011;9492;51.888;5.186;2023-12-07T10:46:52;24.07;;;15.43;;
18726;SDS011;9492;51.888;5.186;2023-12-07T10:49:19;26.33;;;16.00;;
18726;SDS011;9492;51.888;5.186;2023-12-07T10:51:51;25.80;;;14.23;;
18726;SDS011;9492;51.888;5.186;2023-12-07T10:54:18;23.00;;;13.13;;
18726;SDS011;9492;51.888;5.186;2023-12-07T10:56:47;23.43;;;12.93;;
18726;SDS011;9492;51.888;5.186;2023-12-07T10:59:15;21.37;;;13.67;;
18726;SDS011;9492;51.888;5.186;2023-12-07T11:01:42;22.47;;;13.87;;
18726;SDS011;9492;51.888;5.186;2023-12-07T11:04:11;24.03;;;13.27;;
18726;SDS011;9492;51.888;5.186;2023-12-07T11:06:41;24.50;;;13.37;;
18726;SDS011;9492;51.888;5.186;2023-12-07T11:09:13;22.97;;;12.67;;
18726;SDS011;9492;51.888;5.186;2023-12-07T11:11:46;21.57;;;12.93;;
18726;SDS011;9492;51.888;5.186;2023-12-07T11:14:13;22.23;;;13.43;;
18726;SDS011;9492;51.888;5.186;2023-12-07T11:16:40;25.17;;;15.00;;
18726;SDS011;9492;51.888;5.186;2023-12-07T11:21:52;24.77;;;13.20;;
18726;SDS011;9492;51.888;5.186;2023-12-07T11:24:18;23.83;;;12.97;;
18726;SDS011;9492;51.888;5.186;2023-12-07T11:26:44;23.83;;;13.40;;
18726;SDS011;9492;51.888;5.186;2023-12-07T11:29:10;24.63;;;15.00;;
18726;SDS011;9492;51.888;5.186;2023-12-07T11:31:36;24.77;;;13.77;;
18726;SDS011;9492;51.888;5.186;2023-12-07T11:34:06;24.53;;;14.53;;
18726;SDS011;9492;51.888;5.186;2023-12-07T11:36:38;24.20;;;14.20;;
18726;SDS011;9492;51.888;5.186;2023-12-07T11:41:46;24.00;;;15.07;;
18726;SDS011;9492;51.888;5.186;2023-12-07T11:44:15;21.37;;;13.27;;
18726;SDS011;9492;51.888;5.186;2023-12-07T11:46:43;23.73;;;13.27;;
18726;SDS011;9492;51.888;5.186;2023-12-07T11:49:09;26.53;;;14.37;;
18726;SDS011;9492;51.888;5.186;2023-12-07T11:51:36;22.10;;;13.33;;
18726;SDS011;9492;51.888;5.186;2023-12-07T11:54:03;25.53;;;12.93;;
18726;SDS011;9492;51.888;5.186;2023-12-07T11:56:29;22.40;;;12.00;;
18726;SDS011;9492;51.888;5.186;2023-12-07T11:58:56;21.57;;;12.23;;
18726;SDS011;9492;51.888;5.186;2023-12-07T12:01:24;24.63;;;13.63;;
18726;SDS011;9492;51.888;5.186;2023-12-07T12:03:53;24.30;;;14.80;;
18726;SDS011;9492;51.888;5.186;2023-12-07T12:06:19;24.97;;;14.37;;
18726;SDS011;9492;51.888;5.186;2023-12-07T12:08:45;27.33;;;13.77;;
18726;SDS011;9492;51.888;5.186;2023-12-07T12:11:11;26.90;;;12.93;;
18726;SDS011;9492;51.888;5.186;2023-12-07T12:13:37;28.70;;;13.77;;
18726;SDS011;9492;51.888;5.186;2023-12-07T12:16:04;24.20;;;14.57;;
18726;SDS011;9492;51.888;5.186;2023-12-07T12:18:30;21.90;;;13.87;;
18726;SDS011;9492;51.888;5.186;2023-12-07T12:20:56;22.33;;;13.00;;
18726;SDS011;9492;51.888;5.186;2023-12-07T12:23:24;23.70;;;13.63;;
18726;SDS011;9492;51.888;5.186;2023-12-07T12:25:50;24.07;;;14.00;;
18726;SDS011;9492;51.888;5.186;2023-12-07T12:28:17;23.07;;;13.73;;
18726;SDS011;9492;51.888;5.186;2023-12-07T12:30:44;21.57;;;13.57;;
18726;SDS011;9492;51.888;5.186;2023-12-07T12:33:10;22.03;;;13.53;;
18726;SDS011;9492;51.888;5.186;2023-12-07T12:35:36;21.97;;;12.90;;
18726;SDS011;9492;51.888;5.186;2023-12-07T12:38:02;19.93;;;12.80;;
18726;SDS011;9492;51.888;5.186;2023-12-07T12:40:34;21.47;;;13.10;;
18726;SDS011;9492;51.888;5.186;2023-12-07T12:43:00;21.20;;;12.93;;
18726;SDS011;9492;51.888;5.186;2023-12-07T12:45:26;22.00;;;13.43;;
18726;SDS011;9492;51.888;5.186;2023-12-07T12:47:53;20.13;;;13.20;;
18726;SDS011;9492;51.888;5.186;2023-12-07T12:50:38;20.63;;;13.23;;
18726;SDS011;9492;51.888;5.186;2023-12-07T12:53:05;24.90;;;15.27;;
18726;SDS011;9492;51.888;5.186;2023-12-07T12:55:38;24.73;;;13.97;;
18726;SDS011;9492;51.888;5.186;2023-12-07T12:58:05;20.97;;;14.77;;
18726;SDS011;9492;51.888;5.186;2023-12-07T13:00:32;27.13;;;15.57;;
18726;SDS011;9492;51.888;5.186;2023-12-07T13:02:58;25.20;;;15.60;;
18726;SDS011;9492;51.888;5.186;2023-12-07T13:05:25;21.63;;;13.87;;
18726;SDS011;9492;51.888;5.186;2023-12-07T13:07:51;25.27;;;16.37;;
18726;SDS011;9492;51.888;5.186;2023-12-07T13:10:17;21.10;;;14.10;;
18726;SDS011;9492;51.888;5.186;2023-12-07T13:12:43;21.37;;;13.70;;
18726;SDS011;9492;51.888;5.186;2023-12-07T13:15:10;19.87;;;13.87;;
18726;SDS011;9492;51.888;5.186;2023-12-07T13:17:40;19.97;;;13.33;;
18726;SDS011;9492;51.888;5.186;2023-12-07T13:20:06;19.40;;;13.67;;
18726;SDS011;9492;51.888;5.186;2023-12-07T13:22:35;20.67;;;13.30;;
18726;SDS011;9492;51.888;5.186;2023-12-07T13:25:01;20.20;;;13.50;;
18726;SDS011;9492;51.888;5.186;2023-12-07T13:27:27;19.53;;;13.47;;
18726;SDS011;9492;51.888;5.186;2023-12-07T13:29:53;22.57;;;13.77;;
18726;SDS011;9492;51.888;5.186;2023-12-07T13:32:19;21.90;;;14.10;;
18726;SDS011;9492;51.888;5.186;2023-12-07T13:34:45;20.00;;;14.13;;
18726;SDS011;9492;51.888;5.186;2023-12-07T13:37:11;19.87;;;14.30;;
18726;SDS011;9492;51.888;5.186;2023-12-07T13:39:37;21.30;;;13.77;;
18726;SDS011;9492;51.888;5.186;2023-12-07T13:42:03;20.40;;;14.47;;
18726;SDS011;9492;51.888;5.186;2023-12-07T13:44:29;23.00;;;15.03;;
18726;SDS011;9492;51.888;5.186;2023-12-07T13:46:57;20.00;;;13.80;;
18726;SDS011;9492;51.888;5.186;2023-12-07T13:49:23;23.30;;;14.20;;
18726;SDS011;9492;51.888;5.186;2023-12-07T13:51:49;21.63;;;14.67;;
18726;SDS011;9492;51.888;5.186;2023-12-07T13:54:15;22.50;;;14.47;;
18726;SDS011;9492;51.888;5.186;2023-12-07T13:56:41;23.70;;;14.73;;
18726;SDS011;9492;51.888;5.186;2023-12-07T13:59:08;22.97;;;14.20;;
18726;SDS011;9492;51.888;5.186;2023-12-07T14:01:35;22.57;;;14.67;;
18726;SDS011;9492;51.888;5.186;2023-12-07T14:04:02;23.97;;;15.87;;
18726;SDS011;9492;51.888;5.186;2023-12-07T14:06:28;23.13;;;14.90;;
18726;SDS011;9492;51.888;5.186;2023-12-07T14:08:54;25.17;;;14.83;;
18726;SDS011;9492;51.888;5.186;2023-12-07T14:11:20;23.17;;;14.83;;
18726;SDS011;9492;51.888;5.186;2023-12-07T14:13:46;26.03;;;15.03;;
18726;SDS011;9492;51.888;5.186;2023-12-07T14:16:13;24.50;;;16.53;;
18726;SDS011;9492;51.888;5.186;2023-12-07T14:18:39;29.17;;;16.83;;
18726;SDS011;9492;51.888;5.186;2023-12-07T14:21:05;26.30;;;15.77;;
18726;SDS011;9492;51.888;5.186;2023-12-07T14:23:31;21.53;;;16.10;;
18726;SDS011;9492;51.888;5.186;2023-12-07T14:25:57;27.50;;;17.03;;
18726;SDS011;9492;51.888;5.186;2023-12-07T14:28:24;25.97;;;16.50;;
18726;SDS011;9492;51.888;5.186;2023-12-07T14:30:50;29.63;;;18.50;;
18726;SDS011;9492;51.888;5.186;2023-12-07T14:33:21;32.20;;;18.00;;
18726;SDS011;9492;51.888;5.186;2023-12-07T14:35:47;28.80;;;19.10;;
18726;SDS011;9492;51.888;5.186;2023-12-07T14:38:14;32.90;;;19.13;;
18726;SDS011;9492;51.888;5.186;2023-12-07T14:40:40;28.73;;;19.10;;
18726;SDS011;9492;51.888;5.186;2023-12-07T14:43:06;26.17;;;17.20;;